Time;durP1;ratioP1;P1;durP2;ratioP2;P2;SDS_P1;SDS_P2;PMS_P1;PMS_P2;Temp;Humidity;BMP_temperature;BMP_pressure;BME280_temperature;BME280_humidity;BME280_pressure;Samples;Min_cycle;Max_cycle;Signal;HPM_P1;HPM_P2
2022/10/28 00:01:06;;;;;;;13.48;6.93;;;;;;;;;;6117228;23;20014;-78
2022/10/28 00:03:33;;;;;;;12.43;7.85;;;;;;;;;;6117415;23;20104;-78
2022/10/28 00:06:19;;;;;;;12.18;7.88;;;;;;;;;;6093342;23;20020;-78
2022/10/28 00:08:45;;;;;;;13.95;7.95;;;;;;;;;;6117841;23;20340;-78
2022/10/28 00:11:19;;;;;;;11.43;8.27;;;;;;;;;;6118281;23;20018;-78
2022/10/28 00:13:45;;;;;;;13.32;7.00;;;;;;;;;;6094696;23;20097;-78
2022/10/28 00:16:13;;;;;;;15.02;8.65;;;;;;;;;;6118725;23;20046;-78
2022/10/28 00:18:39;;;;;;;9.63;7.32;;;;;;;;;;6118602;23;20053;-78
2022/10/28 00:21:07;;;;;;;16.63;8.55;;;;;;;;;;6119372;23;20018;-78
2022/10/28 00:23:33;;;;;;;23.00;9.63;;;;;;;;;;6118449;23;20326;-78
2022/10/28 00:26:03;;;;;;;11.18;8.98;;;;;;;;;;6094099;23;20667;-78
2022/10/28 00:28:29;;;;;;;14.68;8.05;;;;;;;;;;6094411;23;20040;-78
2022/10/28 00:30:56;;;;;;;13.70;8.82;;;;;;;;;;6119045;23;20022;-78
2022/10/28 00:33:22;;;;;;;13.77;7.88;;;;;;;;;;6119062;23;20022;-78
2022/10/28 00:35:48;;;;;;;13.93;9.60;;;;;;;;;;6118331;23;20014;-78
2022/10/28 00:38:14;;;;;;;14.98;9.10;;;;;;;;;;6094997;23;20032;-78
2022/10/28 00:40:40;;;;;;;11.93;8.52;;;;;;;;;;6118596;23;20325;-78
2022/10/28 00:43:06;;;;;;;16.45;9.07;;;;;;;;;;6118767;23;20053;-78
2022/10/28 00:45:32;;;;;;;15.40;7.95;;;;;;;;;;6118491;23;20014;-78
2022/10/28 00:48:00;;;;;;;15.32;9.60;;;;;;;;;;6094259;23;20068;-78
2022/10/28 00:50:32;;;;;;;16.25;9.85;;;;;;;;;;6094138;23;20017;-78
2022/10/28 00:53:04;;;;;;;15.90;10.25;;;;;;;;;;6118595;23;20026;-78
2022/10/28 00:55:31;;;;;;;17.48;9.68;;;;;;;;;;6094798;23;20463;-78
2022/10/28 00:57:57;;;;;;;15.43;9.45;;;;;;;;;;6118534;23;20535;-78
2022/10/28 01:00:24;;;;;;;13.18;9.35;;;;;;;;;;6117615;23;20344;-78
2022/10/28 01:02:50;;;;;;;16.80;10.13;;;;;;;;;;6118856;23;20028;-78
2022/10/28 01:05:20;;;;;;;12.68;8.80;;;;;;;;;;6094161;23;20025;-78
2022/10/28 01:07:46;;;;;;;12.82;8.30;;;;;;;;;;6094277;23;20386;-78
2022/10/28 01:10:13;;;;;;;11.10;8.95;;;;;;;;;;6070488;23;20052;-78
2022/10/28 01:12:45;;;;;;;14.90;8.65;;;;;;;;;;6093923;23;20021;-78
2022/10/28 01:15:30;;;;;;;11.93;8.70;;;;;;;;;;6117668;23;20267;-78
2022/10/28 01:17:59;;;;;;;12.10;8.23;;;;;;;;;;6118028;23;20014;-78
2022/10/28 01:20:44;;;;;;;15.35;9.38;;;;;;;;;;6118294;23;20018;-78
2022/10/28 01:23:19;;;;;;;15.88;9.35;;;;;;;;;;6094125;23;20021;-78
2022/10/28 01:25:58;;;;;;;19.80;9.48;;;;;;;;;;6118633;23;20032;-78
2022/10/28 01:28:39;;;;;;;14.27;9.43;;;;;;;;;;6070111;23;20061;-78
2022/10/28 01:31:20;;;;;;;12.88;9.27;;;;;;;;;;6118444;23;20025;-78
2022/10/28 01:33:50;;;;;;;14.60;9.38;;;;;;;;;;6069900;23;20349;-78
2022/10/28 01:36:19;;;;;;;20.23;8.10;;;;;;;;;;6070182;23;20112;-78
2022/10/28 01:39:09;;;;;;;11.75;8.60;;;;;;;;;;6118769;23;20109;-78
2022/10/28 01:41:45;;;;;;;15.05;9.32;;;;;;;;;;6094429;23;20333;-78
2022/10/28 01:44:18;;;;;;;15.80;10.27;;;;;;;;;;6118198;23;20273;-78
2022/10/28 01:46:51;;;;;;;13.68;9.68;;;;;;;;;;6093907;23;20017;-78
2022/10/28 01:49:27;;;;;;;15.18;9.73;;;;;;;;;;6117875;23;20488;-78
2022/10/28 01:51:55;;;;;;;13.82;9.05;;;;;;;;;;6118937;23;20045;-78
2022/10/28 01:54:24;;;;;;;17.52;10.55;;;;;;;;;;6118857;23;20539;-78
2022/10/28 01:56:52;;;;;;;15.15;9.05;;;;;;;;;;6120836;23;20064;-78
2022/10/28 01:59:23;;;;;;;12.88;8.88;;;;;;;;;;6121486;23;20282;-78
2022/10/28 02:01:50;;;;;;;15.25;8.88;;;;;;;;;;6120813;23;20303;-78
2022/10/28 02:04:16;;;;;;;16.80;9.80;;;;;;;;;;6072779;23;20116;-78
2022/10/28 02:06:43;;;;;;;10.52;8.30;;;;;;;;;;6121943;23;20400;-78
2022/10/28 02:09:13;;;;;;;15.68;10.55;;;;;;;;;;6072721;23;20018;-78
2022/10/28 02:11:58;;;;;;;16.35;9.68;;;;;;;;;;6096476;23;20021;-78
2022/10/28 02:14:27;;;;;;;15.20;9.20;;;;;;;;;;6121062;23;20010;-78
2022/10/28 02:17:00;;;;;;;14.95;8.88;;;;;;;;;;6096951;23;20046;-78
2022/10/28 02:19:26;;;;;;;19.67;9.32;;;;;;;;;;6073643;23;20317;-78
2022/10/28 02:21:52;;;;;;;16.27;9.57;;;;;;;;;;6121762;23;20017;-78
2022/10/28 02:24:20;;;;;;;17.10;9.27;;;;;;;;;;6097123;23;20018;-78
2022/10/28 02:26:52;;;;;;;16.63;9.63;;;;;;;;;;6096936;23;20445;-78
2022/10/28 02:29:27;;;;;;;17.87;9.90;;;;;;;;;;6121309;23;20182;-77
2022/10/28 02:31:57;;;;;;;18.17;10.13;;;;;;;;;;6121295;23;20070;-78
2022/10/28 02:34:30;;;;;;;16.42;8.57;;;;;;;;;;6120933;23;20336;-78
2022/10/28 02:36:58;;;;;;;13.13;8.32;;;;;;;;;;6073337;23;20464;-78
2022/10/28 02:39:27;;;;;;;14.38;10.27;;;;;;;;;;6120725;23;20016;-78
2022/10/28 02:42:08;;;;;;;17.77;10.35;;;;;;;;;;6121275;23;20018;-78
2022/10/28 02:44:36;;;;;;;12.15;8.52;;;;;;;;;;6120665;23;20024;-78
2022/10/28 02:47:05;;;;;;;13.38;8.82;;;;;;;;;;6095927;23;20014;-78
2022/10/28 02:49:31;;;;;;;11.80;8.63;;;;;;;;;;6120831;23;20014;-78
2022/10/28 02:51:59;;;;;;;15.52;9.38;;;;;;;;;;6121187;23;20048;-78
2022/10/28 02:54:41;;;;;;;20.63;9.45;;;;;;;;;;6096474;23;20113;-78
2022/10/28 02:57:09;;;;;;;15.63;8.93;;;;;;;;;;6121310;23;20321;-78
2022/10/28 02:59:35;;;;;;;13.27;9.65;;;;;;;;;;6121357;23;20010;-78
2022/10/28 03:02:02;;;;;;;10.80;8.30;;;;;;;;;;6120853;23;20076;-78
2022/10/28 03:04:28;;;;;;;12.43;9.23;;;;;;;;;;6096265;23;20049;-77
2022/10/28 03:06:54;;;;;;;16.88;10.15;;;;;;;;;;6120853;23;20085;-78
2022/10/28 03:09:20;;;;;;;17.63;9.48;;;;;;;;;;6095270;23;20018;-78
2022/10/28 03:11:47;;;;;;;17.15;9.90;;;;;;;;;;6095094;23;20054;-78
2022/10/28 03:14:13;;;;;;;13.13;8.45;;;;;;;;;;6119369;23;20415;-78
2022/10/28 03:16:39;;;;;;;15.32;9.38;;;;;;;;;;6119688;23;20020;-78
2022/10/28 03:19:05;;;;;;;15.80;9.25;;;;;;;;;;6119120;23;20248;-78
2022/10/28 03:21:31;;;;;;;16.88;9.52;;;;;;;;;;6095233;23;20025;-78
2022/10/28 03:23:57;;;;;;;16.33;10.32;;;;;;;;;;6119626;23;20025;-78
2022/10/28 03:26:23;;;;;;;15.23;10.05;;;;;;;;;;6119176;23;20022;-78
2022/10/28 03:28:49;;;;;;;16.23;10.23;;;;;;;;;;6118871;23;20484;-78
2022/10/28 03:31:15;;;;;;;15.30;8.88;;;;;;;;;;6095409;23;20025;-78
2022/10/28 03:33:42;;;;;;;13.50;8.77;;;;;;;;;;6070713;23;20014;-78
2022/10/28 03:36:08;;;;;;;15.18;10.15;;;;;;;;;;6069991;23;20041;-78
2022/10/28 03:38:34;;;;;;;17.02;9.40;;;;;;;;;;6119183;23;20021;-78
2022/10/28 03:41:00;;;;;;;16.98;9.80;;;;;;;;;;6119993;23;20559;-78
2022/10/28 03:43:26;;;;;;;20.50;9.55;;;;;;;;;;6094853;23;20357;-78
2022/10/28 03:45:52;;;;;;;16.17;9.60;;;;;;;;;;6118128;23;20018;-77
2022/10/28 03:48:18;;;;;;;18.45;10.20;;;;;;;;;;6070103;23;20014;-77
2022/10/28 03:50:44;;;;;;;33.58;9.20;;;;;;;;;;6094063;23;20080;-77
2022/10/28 03:53:10;;;;;;;16.92;9.52;;;;;;;;;;6119141;23;20061;-78
2022/10/28 03:55:36;;;;;;;12.27;9.55;;;;;;;;;;6119459;23;20014;-78
2022/10/28 03:58:03;;;;;;;15.25;10.48;;;;;;;;;;6119700;23;20281;-78
2022/10/28 04:00:29;;;;;;;15.38;10.05;;;;;;;;;;6118810;23;20018;-78
2022/10/28 04:02:55;;;;;;;17.90;10.93;;;;;;;;;;6094666;23;20013;-78
2022/10/28 04:05:21;;;;;;;14.95;9.75;;;;;;;;;;6119520;23;20076;-78
2022/10/28 04:07:47;;;;;;;14.88;11.15;;;;;;;;;;6094626;23;20018;-78
2022/10/28 04:10:13;;;;;;;14.63;10.40;;;;;;;;;;6094314;23;20021;-78
2022/10/28 04:12:40;;;;;;;18.20;10.75;;;;;;;;;;6118888;23;20018;-78
2022/10/28 04:15:06;;;;;;;20.10;10.75;;;;;;;;;;6118477;23;20092;-78
2022/10/28 04:17:35;;;;;;;17.45;10.60;;;;;;;;;;6118560;23;20032;-78
2022/10/28 04:20:02;;;;;;;18.83;10.95;;;;;;;;;;6119439;23;20014;-78
2022/10/28 04:22:28;;;;;;;16.90;10.05;;;;;;;;;;6117762;23;20045;-78
2022/10/28 04:24:54;;;;;;;19.35;9.80;;;;;;;;;;6118604;23;20021;-78
2022/10/28 04:27:20;;;;;;;22.33;11.10;;;;;;;;;;6118430;23;20250;-78
2022/10/28 04:29:47;;;;;;;17.23;10.55;;;;;;;;;;6119030;23;20021;-78
2022/10/28 04:32:13;;;;;;;19.48;10.75;;;;;;;;;;6119001;23;20021;-78
2022/10/28 04:34:39;;;;;;;19.08;10.65;;;;;;;;;;6118384;23;20018;-78
2022/10/28 04:37:05;;;;;;;18.15;11.38;;;;;;;;;;6118823;23;20014;-78
2022/10/28 04:39:31;;;;;;;19.58;11.38;;;;;;;;;;6119048;23;20052;-78
2022/10/28 04:41:57;;;;;;;17.95;10.35;;;;;;;;;;6094378;23;20196;-77
2022/10/28 04:44:23;;;;;;;18.25;11.13;;;;;;;;;;6093421;23;20102;-78
2022/10/28 04:46:49;;;;;;;18.85;11.18;;;;;;;;;;6119796;23;20028;-78
2022/10/28 04:49:15;;;;;;;19.88;11.43;;;;;;;;;;6094372;23;20020;-78
2022/10/28 04:51:42;;;;;;;23.23;12.15;;;;;;;;;;6119101;23;20076;-78
2022/10/28 04:54:08;;;;;;;15.75;10.45;;;;;;;;;;6119709;23;20069;-78
2022/10/28 04:56:34;;;;;;;16.65;10.30;;;;;;;;;;6071390;23;20014;-78
2022/10/28 04:59:00;;;;;;;14.85;10.57;;;;;;;;;;6118096;23;20022;-77
2022/10/28 05:01:26;;;;;;;16.50;11.07;;;;;;;;;;6094661;23;20014;-78
2022/10/28 05:03:52;;;;;;;18.67;11.60;;;;;;;;;;6117085;23;20018;-78
2022/10/28 05:06:18;;;;;;;18.10;11.23;;;;;;;;;;6093364;23;20018;-78
2022/10/28 05:08:44;;;;;;;16.77;11.10;;;;;;;;;;6118224;23;20014;-78
2022/10/28 05:11:10;;;;;;;16.42;11.85;;;;;;;;;;6118706;23;20018;-76
2022/10/28 05:13:36;;;;;;;17.23;11.38;;;;;;;;;;6120598;23;20042;-76
2022/10/28 05:16:03;;;;;;;18.40;10.23;;;;;;;;;;6119145;23;20045;-76
2022/10/28 05:18:29;;;;;;;13.85;9.88;;;;;;;;;;6118602;23;20077;-76
2022/10/28 05:20:55;;;;;;;19.60;12.05;;;;;;;;;;6118712;23;20008;-76
2022/10/28 05:23:22;;;;;;;14.25;11.00;;;;;;;;;;6095571;23;20552;-76
2022/10/28 05:25:49;;;;;;;18.80;11.55;;;;;;;;;;6119214;23;20014;-77
2022/10/28 05:28:15;;;;;;;20.83;12.50;;;;;;;;;;6096060;23;20022;-76
2022/10/28 05:30:41;;;;;;;16.17;11.13;;;;;;;;;;6120297;23;20290;-76
2022/10/28 05:33:09;;;;;;;16.65;11.27;;;;;;;;;;6095909;23;20045;-76
2022/10/28 05:35:36;;;;;;;16.85;11.35;;;;;;;;;;6120792;23;20016;-76
2022/10/28 05:38:02;;;;;;;17.50;11.25;;;;;;;;;;6118702;23;20045;-76
2022/10/28 05:40:28;;;;;;;21.83;10.80;;;;;;;;;;6117229;23;20025;-77
2022/10/28 05:42:54;;;;;;;18.27;12.80;;;;;;;;;;6116454;23;20053;-77
2022/10/28 05:45:20;;;;;;;16.92;10.85;;;;;;;;;;6114907;23;20121;-77
2022/10/28 05:47:47;;;;;;;16.95;10.80;;;;;;;;;;6115742;23;20026;-77
2022/10/28 05:50:14;;;;;;;18.92;11.13;;;;;;;;;;6116187;23;20087;-78
2022/10/28 05:52:44;;;;;;;15.98;11.10;;;;;;;;;;6093618;23;20021;-77
2022/10/28 05:55:10;;;;;;;18.13;8.85;;;;;;;;;;6116411;23;20018;-76
2022/10/28 05:57:36;;;;;;;14.63;10.10;;;;;;;;;;6115656;23;20041;-78
2022/10/28 06:00:03;;;;;;;17.30;11.15;;;;;;;;;;6118498;23;20577;-77
2022/10/28 06:02:29;;;;;;;16.10;9.98;;;;;;;;;;6119675;23;20024;-78
2022/10/28 06:04:55;;;;;;;17.17;10.18;;;;;;;;;;6070100;23;20022;-77
2022/10/28 06:07:21;;;;;;;20.92;10.70;;;;;;;;;;6118872;23;20040;-77
2022/10/28 06:09:49;;;;;;;24.33;13.23;;;;;;;;;;6118642;23;20018;-77
2022/10/28 06:12:15;;;;;;;18.05;10.48;;;;;;;;;;6067891;23;20105;-77
2022/10/28 06:14:41;;;;;;;15.52;10.20;;;;;;;;;;6116182;23;20060;-77
2022/10/28 06:17:08;;;;;;;22.58;12.23;;;;;;;;;;6091563;23;20064;-77
2022/10/28 06:19:34;;;;;;;17.60;11.18;;;;;;;;;;6115699;23;20010;-77
2022/10/28 06:22:00;;;;;;;13.70;10.27;;;;;;;;;;6090272;23;20029;-77
2022/10/28 06:24:26;;;;;;;17.20;11.45;;;;;;;;;;6114217;23;20018;-77
2022/10/28 06:26:52;;;;;;;18.15;10.70;;;;;;;;;;6112051;23;20064;-77
2022/10/28 06:29:19;;;;;;;14.70;9.85;;;;;;;;;;6082438;23;20029;-77
2022/10/28 06:31:45;;;;;;;22.25;11.82;;;;;;;;;;6066142;23;20037;-77
2022/10/28 06:34:12;;;;;;;16.92;10.43;;;;;;;;;;6117323;23;20025;-77
2022/10/28 06:36:39;;;;;;;17.23;10.52;;;;;;;;;;6091788;23;20093;-77
2022/10/28 06:39:05;;;;;;;18.80;11.68;;;;;;;;;;6091625;23;20018;-77
2022/10/28 06:41:31;;;;;;;21.20;10.90;;;;;;;;;;6116316;23;20018;-77
2022/10/28 06:43:57;;;;;;;15.30;9.55;;;;;;;;;;6067160;23;20018;-77
2022/10/28 06:46:23;;;;;;;16.88;11.18;;;;;;;;;;6116329;23;20200;-77
2022/10/28 06:48:49;;;;;;;21.20;13.02;;;;;;;;;;6092592;23;20018;-77
2022/10/28 06:51:16;;;;;;;17.75;11.05;;;;;;;;;;6117129;23;20018;-77
2022/10/28 06:53:42;;;;;;;12.18;10.45;;;;;;;;;;6117297;23;20739;-77
2022/10/28 06:56:09;;;;;;;24.30;10.20;;;;;;;;;;6116871;23;20033;-77
2022/10/28 06:58:35;;;;;;;14.02;10.05;;;;;;;;;;6116314;23;20033;-77
2022/10/28 07:01:05;;;;;;;18.25;11.43;;;;;;;;;;6116697;23;20022;-77
2022/10/28 07:03:34;;;;;;;17.45;11.18;;;;;;;;;;6091758;23;20013;-77
2022/10/28 07:06:00;;;;;;;16.55;10.48;;;;;;;;;;6116028;23;20036;-77
2022/10/28 07:08:26;;;;;;;16.60;9.45;;;;;;;;;;6068606;23;20033;-77
2022/10/28 07:10:56;;;;;;;16.58;9.93;;;;;;;;;;6092233;23;20024;-77
2022/10/28 07:13:23;;;;;;;17.30;9.40;;;;;;;;;;6117488;23;20022;-77
2022/10/28 07:15:53;;;;;;;14.98;9.52;;;;;;;;;;6117950;23;20014;-77
2022/10/28 07:18:19;;;;;;;13.85;10.40;;;;;;;;;;6091970;23;20164;-77
2022/10/28 07:20:46;;;;;;;18.75;10.38;;;;;;;;;;6091088;23;20010;-77
2022/10/28 07:23:12;;;;;;;18.40;10.32;;;;;;;;;;6116206;23;20494;-77
2022/10/28 07:25:38;;;;;;;18.13;10.15;;;;;;;;;;6116501;23;20021;-78
2022/10/28 07:28:04;;;;;;;19.65;9.57;;;;;;;;;;6091613;23;20025;-77
2022/10/28 07:30:31;;;;;;;18.08;9.73;;;;;;;;;;6115150;23;20018;-78
2022/10/28 07:32:59;;;;;;;17.90;9.45;;;;;;;;;;6115811;23;20109;-78
2022/10/28 07:35:26;;;;;;;16.25;9.70;;;;;;;;;;6116564;23;20014;-77
2022/10/28 07:37:52;;;;;;;13.48;8.35;;;;;;;;;;6091949;23;20018;-77
2022/10/28 07:40:19;;;;;;;17.42;7.25;;;;;;;;;;6116062;23;20097;-77
2022/10/28 07:42:45;;;;;;;13.05;8.73;;;;;;;;;;6092172;23;20496;-77
2022/10/28 07:45:12;;;;;;;15.57;8.50;;;;;;;;;;6115816;23;20113;-77
2022/10/28 07:47:38;;;;;;;13.32;8.73;;;;;;;;;;6068269;23;20032;-77
2022/10/28 07:50:05;;;;;;;12.70;7.85;;;;;;;;;;6117810;23;20045;-77
2022/10/28 07:52:32;;;;;;;12.48;8.20;;;;;;;;;;6092720;23;20025;-77
2022/10/28 07:54:58;;;;;;;16.63;7.45;;;;;;;;;;6116457;23;20068;-76
2022/10/28 07:57:24;;;;;;;18.45;9.00;;;;;;;;;;6116265;23;20313;-77
2022/10/28 07:59:50;;;;;;;15.20;8.15;;;;;;;;;;6116735;23;20539;-77
2022/10/28 08:02:17;;;;;;;12.93;8.05;;;;;;;;;;6092195;23;20021;-77
2022/10/28 08:04:44;;;;;;;14.90;8.95;;;;;;;;;;6090522;23;20108;-77
2022/10/28 08:07:10;;;;;;;12.25;7.57;;;;;;;;;;6067400;23;20017;-77
2022/10/28 08:09:36;;;;;;;13.68;8.45;;;;;;;;;;6115332;23;20029;-76
2022/10/28 08:12:02;;;;;;;17.67;9.70;;;;;;;;;;6115319;23;20026;-77
2022/10/28 08:14:28;;;;;;;14.18;8.07;;;;;;;;;;6115705;23;20091;-77
2022/10/28 08:16:55;;;;;;;11.40;6.95;;;;;;;;;;6114873;23;20013;-77
2022/10/28 08:19:21;;;;;;;14.18;8.02;;;;;;;;;;6114087;23;20017;-77
2022/10/28 08:21:47;;;;;;;15.05;8.98;;;;;;;;;;6067266;23;20025;-77
2022/10/28 08:24:13;;;;;;;12.32;8.07;;;;;;;;;;6115901;23;20022;-77
2022/10/28 08:26:39;;;;;;;14.07;8.27;;;;;;;;;;6066621;23;20030;-77
2022/10/28 08:29:06;;;;;;;15.63;8.57;;;;;;;;;;6114652;23;20040;-77
2022/10/28 08:31:33;;;;;;;10.13;7.50;;;;;;;;;;6092047;23;20022;-77
2022/10/28 08:33:59;;;;;;;13.15;8.30;;;;;;;;;;6113542;23;20025;-77
2022/10/28 08:36:25;;;;;;;14.27;6.65;;;;;;;;;;6112158;23;20088;-77
2022/10/28 08:38:51;;;;;;;14.98;8.05;;;;;;;;;;6115571;23;20022;-77
2022/10/28 08:41:23;;;;;;;15.32;7.88;;;;;;;;;;6092311;23;20072;-77
2022/10/28 08:43:56;;;;;;;17.25;8.15;;;;;;;;;;6067717;23;20333;-77
2022/10/28 08:46:41;;;;;;;12.73;6.75;;;;;;;;;;6116064;23;20014;-77
2022/10/28 08:49:12;;;;;;;11.32;7.68;;;;;;;;;;6116056;23;20014;-77
2022/10/28 08:51:49;;;;;;;14.88;8.32;;;;;;;;;;6116408;23;20041;-76
2022/10/28 08:54:18;;;;;;;12.05;7.45;;;;;;;;;;6116267;23;20029;-76
2022/10/28 08:56:46;;;;;;;15.95;7.95;;;;;;;;;;6067879;23;20014;-76
2022/10/28 08:59:13;;;;;;;14.95;7.25;;;;;;;;;;6115641;23;20345;-76
2022/10/28 09:01:59;;;;;;;15.00;8.00;;;;;;;;;;6116666;23;20121;-76
2022/10/28 09:04:38;;;;;;;15.55;8.43;;;;;;;;;;6115469;23;20412;-76
2022/10/28 09:07:05;;;;;;;11.75;6.75;;;;;;;;;;6091542;23;20029;-76
2022/10/28 09:09:31;;;;;;;14.48;6.93;;;;;;;;;;6091390;23;20022;-76
2022/10/28 09:12:02;;;;;;;12.55;6.53;;;;;;;;;;6115300;23;20355;-77
2022/10/28 09:14:43;;;;;;;11.45;6.78;;;;;;;;;;6115439;23;20018;-76
2022/10/28 09:17:20;;;;;;;11.23;7.20;;;;;;;;;;6115687;23;20022;-76
2022/10/28 09:19:49;;;;;;;14.63;7.47;;;;;;;;;;6115951;23;20041;-76
2022/10/28 09:22:41;;;;;;;11.23;6.82;;;;;;;;;;6116152;23;20018;-76
2022/10/28 09:25:17;;;;;;;13.50;7.43;;;;;;;;;;6071986;23;20068;-76
2022/10/28 09:27:43;;;;;;;15.70;7.63;;;;;;;;;;6115989;23;20028;-76
2022/10/28 09:30:26;;;;;;;16.92;8.15;;;;;;;;;;6115665;23;20180;-76
2022/10/28 09:32:52;;;;;;;12.18;7.07;;;;;;;;;;6090361;23;20030;-76
2022/10/28 09:35:21;;;;;;;19.77;8.95;;;;;;;;;;6114884;23;20018;-76
2022/10/28 09:37:50;;;;;;;10.00;6.60;;;;;;;;;;6115542;23;20018;-77
2022/10/28 09:40:19;;;;;;;15.85;7.82;;;;;;;;;;6115686;23;20084;-76
2022/10/28 09:42:48;;;;;;;12.80;7.63;;;;;;;;;;6115530;23;20745;-76
2022/10/28 09:45:19;;;;;;;10.68;7.88;;;;;;;;;;6091019;23;20104;-77
2022/10/28 09:47:47;;;;;;;13.95;7.63;;;;;;;;;;6116004;23;20389;-76
2022/10/28 09:50:15;;;;;;;12.30;7.43;;;;;;;;;;6115521;23;20101;-76
2022/10/28 09:52:56;;;;;;;13.40;7.78;;;;;;;;;;6114779;23;20379;-77
2022/10/28 09:55:22;;;;;;;16.67;8.50;;;;;;;;;;6091404;23;20460;-76
2022/10/28 09:57:48;;;;;;;13.68;8.55;;;;;;;;;;6116055;23;20032;-76
2022/10/28 10:00:15;;;;;;;14.35;6.78;;;;;;;;;;6116182;23;20045;-76
2022/10/28 10:02:42;;;;;;;16.58;8.10;;;;;;;;;;6115423;23;20219;-77
2022/10/28 10:05:12;;;;;;;16.08;8.23;;;;;;;;;;6114245;23;20014;-77
2022/10/28 10:07:51;;;;;;;12.00;8.15;;;;;;;;;;6115203;23;20026;-77
2022/10/28 10:10:22;;;;;;;13.98;6.95;;;;;;;;;;6115466;23;20018;-77
2022/10/28 10:12:52;;;;;;;10.38;6.40;;;;;;;;;;6115916;23;20018;-77
2022/10/28 10:15:26;;;;;;;12.07;7.05;;;;;;;;;;6067380;23;20014;-77
2022/10/28 10:17:55;;;;;;;14.90;7.65;;;;;;;;;;6116597;23;20018;-77
2022/10/28 10:20:42;;;;;;;16.77;7.93;;;;;;;;;;6069787;23;20479;-77
2022/10/28 10:23:28;;;;;;;13.60;7.38;;;18.00;99.90;;;;;;6141700;23;20404;-77
2022/10/28 10:26:03;;;;;;;13.52;7.32;;;16.60;99.90;;;;;;6116307;23;20416;-77
2022/10/28 10:28:30;;;;;;;10.73;7.53;;;16.60;99.90;;;;;;6115579;23;20022;-77
2022/10/28 10:30:58;;;;;;;15.75;7.22;;;16.70;99.90;;;;;;6115993;23;20017;-77
2022/10/28 10:33:27;;;;;;;16.15;7.38;;;;;;;;;;6092350;23;20017;-77
2022/10/28 10:36:00;;;;;;;14.18;7.53;;;;;;;;;;6091724;23;20388;-77
2022/10/28 10:38:27;;;;;;;11.93;7.32;;;16.80;99.90;;;;;;6116205;23;20251;-77
2022/10/28 10:40:53;;;;;;;13.40;7.50;;;17.10;99.90;;;;;;6067765;23;20017;-78
2022/10/28 10:43:22;;;;;;;13.23;7.53;;;17.10;99.90;;;;;;6115913;23;20022;-77
2022/10/28 10:46:13;;;;;;;13.13;7.05;;;17.10;99.90;;;;;;6090403;23;20022;-78
2022/10/28 10:48:39;;;;;;;13.48;7.32;;;17.20;99.90;;;;;;6103534;23;20463;-78
2022/10/28 10:51:09;;;;;;;14.60;7.60;;;17.20;99.90;;;;;;6114007;23;20024;-77
2022/10/28 10:53:36;;;;;;;12.73;6.57;;;17.30;99.90;;;;;;6092684;23;20021;-77
2022/10/28 10:56:09;;;;;;;14.90;8.18;;;17.30;99.90;;;;;;6119005;23;20045;-77
2022/10/28 10:58:47;;;;;;;16.80;6.80;;;17.40;99.90;;;;;;6116312;23;20014;-76
2022/10/28 11:01:21;;;;;;;14.77;7.30;;;17.50;99.90;;;;;;6115626;23;20045;-76
2022/10/28 11:03:57;;;;;;;16.35;7.75;;;17.60;99.90;;;;;;6114415;23;20076;-76
2022/10/28 11:06:29;;;;;;;16.83;7.75;;;;;;;;;;6092332;23;20018;-76
2022/10/28 11:09:01;;;;;;;14.68;7.45;;;17.70;99.90;;;;;;6091877;23;20033;-76
2022/10/28 11:11:37;;;;;;;15.13;6.57;;;;;;;;;;6115192;23;20028;-76
2022/10/28 11:14:08;;;;;;;11.55;7.30;;;18.00;99.90;;;;;;6090419;23;20014;-77
2022/10/28 11:16:45;;;;;;;15.95;7.47;;;18.00;99.90;;;;;;6115529;23;20018;-77
2022/10/28 11:19:20;;;;;;;14.35;6.80;;;18.10;99.90;;;;;;6115655;23;20018;-76
2022/10/28 11:22:02;;;;;;;22.73;7.25;;;18.10;99.90;;;;;;6114720;23;20022;-76
2022/10/28 11:24:49;;;;;;;15.52;8.05;;;18.10;99.90;;;;;;6114964;23;20052;-77
2022/10/28 11:27:44;;;;;;;13.50;5.95;;;18.20;99.90;;;;;;6092692;23;20053;-78
2022/10/28 11:30:14;;;;;;;12.23;6.85;;;18.30;99.90;;;;;;6091916;23;20013;-78
2022/10/28 11:32:58;;;;;;;12.90;6.20;;;18.30;99.90;;;;;;6115795;23;20057;-78
2022/10/28 11:35:44;;;;;;;14.73;6.57;;;18.30;99.90;;;;;;6092330;23;20013;-78
2022/10/28 11:38:36;;;;;;;14.32;6.82;;;18.40;99.90;;;;;;6068379;23;20022;-78
2022/10/28 11:41:17;;;;;;;20.25;7.70;;;18.40;99.90;;;;;;6013103;23;20129;-78
2022/10/28 11:43:49;;;;;;;11.95;6.63;;;;;;;;;;6119297;23;20018;-78
2022/10/28 11:46:15;;;;;;;11.88;7.40;;;;;;;;;;6117729;23;20016;-78
2022/10/28 11:48:44;;;;;;;18.33;7.32;;;;;;;;;;6093145;23;20042;-78
2022/10/28 11:51:17;;;;;;;10.95;6.68;;;;;;;;;;6094223;23;20046;-77
2022/10/28 11:53:43;;;;;;;12.02;6.57;;;;;;;;;;6117965;23;20024;-77
2022/10/28 11:56:15;;;;;;;15.05;7.30;;;;;;;;;;6117238;23;20157;-77
2022/10/28 11:58:41;;;;;;;;;;;;;;;;;;6117201;23;20017;-77
2022/10/28 12:01:26;;;;;;;14.95;7.53;;;;;;;;;;6115522;23;19917;-77
2022/10/28 12:04:11;;;;;;;13.15;5.93;;;;;;;;;;6115938;23;20014;-77
2022/10/28 12:06:56;;;;;;;9.90;5.68;;;;;;;;;;6091421;23;20060;-77
2022/10/28 12:09:42;;;;;;;15.15;7.45;;;;;;;;;;6117443;23;20017;-78
2022/10/28 12:12:18;;;;;;;15.32;6.80;;;;;;;;;;6098620;23;20338;-78
2022/10/28 12:14:56;;;;;;;10.40;5.50;;;;;;;;;;6093976;23;20014;-78
2022/10/28 12:17:34;;;;;;;11.73;7.47;;;;;;;;;;6120016;23;20029;-78
2022/10/28 12:20:10;;;;;;;9.30;6.03;;;;;;;;;;6120608;23;20021;-78
2022/10/28 12:22:44;;;;;;;14.20;6.40;;;;;;;;;;6120385;23;20050;-78
2022/10/28 12:25:13;;;;;;;14.15;7.60;;;;;;;;;;6120421;23;20029;-78
2022/10/28 12:27:41;;;;;;;10.57;5.40;;;;;;;;;;6120741;23;20018;-78
2022/10/28 12:30:20;;;;;;;8.75;6.35;;;;;;;;;;6096138;23;20054;-78
2022/10/28 12:32:48;;;;;;;10.60;6.43;;;;;;;;;;6120396;23;20025;-78
2022/10/28 12:35:16;;;;;;;11.48;6.55;;;;;;;;;;6119973;23;20535;-78
2022/10/28 12:38:01;;;;;;;17.55;7.95;;;;;;;;;;6120961;23;20010;-79
2022/10/28 12:40:30;;;;;;;15.27;6.35;;;;;;;;;;6095278;23;20026;-77
2022/10/28 12:43:01;;;;;;;13.85;7.00;;;;;;;;;;6117860;23;20077;-78
2022/10/28 12:45:33;;;;;;;22.02;8.35;;;;;;;;;;6068898;23;20468;-78
2022/10/28 12:48:08;;;;;;;12.23;6.95;;;;;;;;;;6093269;23;20021;-78
2022/10/28 12:50:39;;;;;;;14.68;6.35;;;;;;;;;;6115664;23;20021;-78
2022/10/28 12:53:15;;;;;;;11.95;5.82;;;;;;;;;;6117125;23;20092;-78
2022/10/28 12:55:43;;;;;;;12.02;7.53;;;;;;;;;;6117663;23;20018;-78
2022/10/28 12:58:21;;;;;;;16.92;6.20;;;;;;;;;;6117338;23;20018;-78
2022/10/28 13:00:50;;;;;;;17.58;7.65;;;;;;;;;;6117267;23;20164;-78
2022/10/28 13:03:17;;;;;;;13.60;7.18;;;;;;;;;;6094789;23;20022;-78
2022/10/28 13:05:47;;;;;;;20.75;7.90;;;;;;;;;;6093481;23;20018;-77
2022/10/28 13:08:29;;;;;;;18.42;8.13;;;;;;;;;;6090190;23;20020;-77
2022/10/28 13:11:07;;;;;;;14.63;7.47;;;;;;;;;;6114659;23;20416;-77
2022/10/28 13:13:52;;;;;;;18.25;7.05;;;;;;;;;;6113778;23;20353;-77
2022/10/28 13:16:18;;;;;;;12.00;7.03;;;;;;;;;;6115191;23;20022;-77
2022/10/28 13:18:44;;;;;;;11.60;6.80;;;;;;;;;;6114055;23;20010;-77
2022/10/28 13:21:28;;;;;;;14.77;7.32;;;;;;;;;;6114201;23;20025;-77
2022/10/28 13:24:17;;;;;;;17.58;8.20;;;;;;;;;;6114831;23;20018;-77
2022/10/28 13:26:44;;;;;;;16.95;7.25;;;;;;;;;;6138558;23;20026;-78
2022/10/28 13:29:31;;;;;;;14.13;7.00;;;;;;;;;;6117159;23;20136;-77
2022/10/28 13:31:57;;;;;;;16.88;6.10;;;;;;;;;;6114752;23;20026;-77
2022/10/28 13:34:33;;;;;;;15.88;7.25;;;;;;;;;;6042574;23;20061;-77
2022/10/28 13:37:02;;;;;;;9.93;6.57;;;;;;;;;;6115417;23;20050;-77
2022/10/28 13:39:28;;;;;;;13.38;6.78;;;;;;;;;;6090978;23;20097;-77
2022/10/28 13:42:13;;;;;;;16.25;6.28;;;;;;;;;;6116389;23;20048;-78
2022/10/28 13:44:52;;;;;;;16.92;6.90;;;;;;;;;;6116367;23;20053;-77
2022/10/28 13:47:21;;;;;;;12.50;6.03;;;;;;;;;;6116498;23;20440;-78
2022/10/28 13:50:06;;;;;;;12.63;6.70;;;;;;;;;;6116022;23;20053;-77
2022/10/28 13:52:32;;;;;;;11.75;6.07;;;;;;;;;;6116218;23;20697;-77
2022/10/28 13:55:11;;;;;;;16.40;6.90;;;;;;;;;;6116586;23;20093;-77
2022/10/28 13:57:46;;;;;;;13.88;7.15;;;;;;;;;;6116125;23;20149;-77
2022/10/28 14:00:18;;;;;;;11.82;6.93;;;;;;;;;;6116873;23;20018;-77
2022/10/28 14:02:58;;;;;;;25.55;7.60;;;;;;;;;;6091966;23;20029;-77
2022/10/28 14:05:26;;;;;;;17.08;7.38;;;;;;;;;;6116132;23;20109;-77
2022/10/28 14:07:54;;;;;;;16.88;7.70;;;;;;;;;;6116203;23;20045;-77
2022/10/28 14:10:28;;;;;;;12.10;6.03;;;;;;;;;;6115929;23;20030;-77
2022/10/28 14:13:03;;;;;;;18.40;7.18;;;;;;;;;;6115641;23;20010;-78
2022/10/28 14:15:32;;;;;;;12.80;7.00;;;;;;;;;;6115646;23;20022;-77
2022/10/28 14:17:58;;;;;;;16.42;7.30;;;;;;;;;;6091790;23;20101;-77
2022/10/28 14:20:28;;;;;;;13.93;7.65;;;;;;;;;;6115537;23;20018;-77
2022/10/28 14:22:54;;;;;;;13.60;6.15;;;;;;;;;;6115543;23;20176;-77
2022/10/28 14:25:40;;;;;;;19.52;7.20;;;;;;;;;;6115767;23;20408;-77
2022/10/28 14:28:25;;;;;;;13.60;6.38;;;;;;;;;;6090951;23;20022;-77
2022/10/28 14:31:10;;;;;;;16.83;7.95;;;;;;;;;;6116031;23;20448;-77
2022/10/28 14:33:45;;;;;;;16.70;7.28;;;;;;;;;;6066842;23;20028;-77